sensor_id;sensor_type;location;lat;lon;timestamp;pressure;altitude;pressure_sealevel;temperature;humidity
45621;BME280;31345;51.522;10.702;2023-03-17T00:02:24;98964.56;;;1.62;100.00
45621;BME280;31345;51.522;10.702;2023-03-17T00:04:51;98957.06;;;1.55;100.00
45621;BME280;31345;51.522;10.702;2023-03-17T00:07:19;98953.84;;;1.48;100.00
45621;BME280;31345;51.522;10.702;2023-03-17T00:09:53;98952.75;;;1.55;100.00
45621;BME280;31345;51.522;10.702;2023-03-17T00:12:26;98952.75;;;1.55;100.00
45621;BME280;31345;51.522;10.702;2023-03-17T00:14:54;98964.75;;;1.56;100.00
45621;BME280;31345;51.522;10.702;2023-03-17T00:17:26;98958.00;;;1.52;100.00
45621;BME280;31345;51.522;10.702;2023-03-17T00:19:54;98952.84;;;1.52;100.00
45621;BME280;31345;51.522;10.702;2023-03-17T00:22:21;98954.34;;;1.31;100.00
45621;BME280;31345;51.522;10.702;2023-03-17T00:24:49;98964.69;;;1.29;100.00
45621;BME280;31345;51.522;10.702;2023-03-17T00:27:22;98961.41;;;1.24;100.00
45621;BME280;31345;51.522;10.702;2023-03-17T00:29:55;98953.03;;;1.17;100.00
45621;BME280;31345;51.522;10.702;2023-03-17T00:32:27;98951.16;;;1.22;100.00
45621;BME280;31345;51.522;10.702;2023-03-17T00:35:00;98955.00;;;1.09;100.00
45621;BME280;31345;51.522;10.702;2023-03-17T00:37:30;98950.00;;;1.03;100.00
45621;BME280;31345;51.522;10.702;2023-03-17T00:40:07;98958.72;;;0.98;100.00
45621;BME280;31345;51.522;10.702;2023-03-17T00:42:42;98958.03;;;0.92;100.00
45621;BME280;31345;51.522;10.702;2023-03-17T00:45:15;98945.88;;;0.97;100.00
45621;BME280;31345;51.522;10.702;2023-03-17T00:47:50;98948.88;;;0.81;100.00
45621;BME280;31345;51.522;10.702;2023-03-17T00:50:20;98936.06;;;0.80;100.00
45621;BME280;31345;51.522;10.702;2023-03-17T00:52:54;98941.25;;;0.46;100.00
45621;BME280;31345;51.522;10.702;2023-03-17T00:55:28;98931.47;;;0.59;100.00
45621;BME280;31345;51.522;10.702;2023-03-17T00:57:57;98916.41;;;0.77;100.00
45621;BME280;31345;51.522;10.702;2023-03-17T01:00:29;98915.75;;;0.39;100.00
45621;BME280;31345;51.522;10.702;2023-03-17T01:02:57;98918.06;;;0.48;100.00
45621;BME280;31345;51.522;10.702;2023-03-17T01:05:26;98915.56;;;0.45;100.00
45621;BME280;31345;51.522;10.702;2023-03-17T01:07:59;98910.50;;;0.42;100.00
45621;BME280;31345;51.522;10.702;2023-03-17T01:10:27;98899.97;;;0.51;100.00
45621;BME280;31345;51.522;10.702;2023-03-17T01:12:57;98900.09;;;0.46;100.00
45621;BME280;31345;51.522;10.702;2023-03-17T01:15:31;98904.34;;;0.48;100.00
45621;BME280;31345;51.522;10.702;2023-03-17T01:18:04;98894.13;;;0.46;100.00
45621;BME280;31345;51.522;10.702;2023-03-17T01:20:37;98904.72;;;0.33;100.00
45621;BME280;31345;51.522;10.702;2023-03-17T01:23:10;98904.72;;;0.33;100.00
45621;BME280;31345;51.522;10.702;2023-03-17T01:25:43;98901.63;;;0.22;100.00
45621;BME280;31345;51.522;10.702;2023-03-17T01:28:18;98909.16;;;0.28;100.00
45621;BME280;31345;51.522;10.702;2023-03-17T01:30:51;98906.97;;;0.13;100.00
45621;BME280;31345;51.522;10.702;2023-03-17T01:33:23;98919.91;;;0.10;100.00
45621;BME280;31345;51.522;10.702;2023-03-17T01:35:56;98911.00;;;0.23;100.00
45621;BME280;31345;51.522;10.702;2023-03-17T01:38:29;98910.72;;;0.01;100.00
45621;BME280;31345;51.522;10.702;2023-03-17T01:40:56;98908.13;;;0.02;100.00
45621;BME280;31345;51.522;10.702;2023-03-17T01:43:31;98893.25;;;0.14;100.00
45621;BME280;31345;51.522;10.702;2023-03-17T01:46:23;98894.28;;;0.08;100.00
45621;BME280;31345;51.522;10.702;2023-03-17T01:49:01;98902.97;;;0.36;100.00
45621;BME280;31345;51.522;10.702;2023-03-17T01:51:37;98892.88;;;0.28;100.00
45621;BME280;31345;51.522;10.702;2023-03-17T01:54:15;98894.91;;;0.16;100.00
45621;BME280;31345;51.522;10.702;2023-03-17T01:56:49;98890.56;;;0.18;100.00
45621;BME280;31345;51.522;10.702;2023-03-17T01:59:27;98887.91;;;0.22;100.00
45621;BME280;31345;51.522;10.702;2023-03-17T02:02:06;98885.00;;;0.34;100.00
45621;BME280;31345;51.522;10.702;2023-03-17T02:04:37;98875.47;;;0.38;100.00
45621;BME280;31345;51.522;10.702;2023-03-17T02:07:11;98875.81;;;0.25;100.00
45621;BME280;31345;51.522;10.702;2023-03-17T02:09:46;98872.47;;;0.22;100.00
45621;BME280;31345;51.522;10.702;2023-03-17T02:12:20;98881.19;;;0.16;100.00
45621;BME280;31345;51.522;10.702;2023-03-17T02:14:51;98883.44;;;0.28;100.00
45621;BME280;31345;51.522;10.702;2023-03-17T02:17:25;98891.28;;;0.24;100.00
45621;BME280;31345;51.522;10.702;2023-03-17T02:19:54;98876.69;;;0.24;100.00
45621;BME280;31345;51.522;10.702;2023-03-17T02:22:28;98862.94;;;0.25;100.00
45621;BME280;31345;51.522;10.702;2023-03-17T02:25:03;98856.09;;;0.26;100.00
45621;BME280;31345;51.522;10.702;2023-03-17T02:27:41;98850.31;;;0.17;100.00
45621;BME280;31345;51.522;10.702;2023-03-17T02:30:19;98847.16;;;0.07;100.00
45621;BME280;31345;51.522;10.702;2023-03-17T02:32:52;98850.22;;;0.20;100.00
45621;BME280;31345;51.522;10.702;2023-03-17T02:35:26;98843.16;;;0.29;100.00
45621;BME280;31345;51.522;10.702;2023-03-17T02:37:55;98837.13;;;0.30;100.00
45621;BME280;31345;51.522;10.702;2023-03-17T02:40:27;98836.19;;;0.32;100.00
45621;BME280;31345;51.522;10.702;2023-03-17T02:42:56;98838.47;;;0.42;100.00
45621;BME280;31345;51.522;10.702;2023-03-17T02:45:27;98847.00;;;0.44;100.00
45621;BME280;31345;51.522;10.702;2023-03-17T02:48:01;98858.84;;;0.50;100.00
45621;BME280;31345;51.522;10.702;2023-03-17T02:50:29;98841.63;;;0.52;100.00
45621;BME280;31345;51.522;10.702;2023-03-17T02:53:03;98847.56;;;0.55;100.00
45621;BME280;31345;51.522;10.702;2023-03-17T02:55:35;98858.19;;;0.43;100.00
45621;BME280;31345;51.522;10.702;2023-03-17T02:58:03;98853.44;;;0.29;100.00
45621;BME280;31345;51.522;10.702;2023-03-17T03:00:35;98855.22;;;0.25;100.00
45621;BME280;31345;51.522;10.702;2023-03-17T03:03:08;98860.28;;;0.28;100.00
45621;BME280;31345;51.522;10.702;2023-03-17T03:05:41;98846.59;;;0.28;100.00
45621;BME280;31345;51.522;10.702;2023-03-17T03:08:15;98848.22;;;0.32;100.00
45621;BME280;31345;51.522;10.702;2023-03-17T03:10:47;98852.53;;;0.30;100.00
45621;BME280;31345;51.522;10.702;2023-03-17T03:13:20;98837.94;;;0.32;100.00
45621;BME280;31345;51.522;10.702;2023-03-17T03:15:53;98839.41;;;0.09;100.00
45621;BME280;31345;51.522;10.702;2023-03-17T03:18:21;98841.56;;;0.25;100.00
45621;BME280;31345;51.522;10.702;2023-03-17T03:20:49;98829.44;;;0.28;100.00
45621;BME280;31345;51.522;10.702;2023-03-17T03:23:22;98832.91;;;0.27;100.00
45621;BME280;31345;51.522;10.702;2023-03-17T03:25:50;98835.63;;;0.21;100.00
45621;BME280;31345;51.522;10.702;2023-03-17T03:28:23;98832.28;;;0.19;100.00
45621;BME280;31345;51.522;10.702;2023-03-17T03:30:55;98836.25;;;0.29;100.00
45621;BME280;31345;51.522;10.702;2023-03-17T03:33:28;98839.75;;;0.27;100.00
45621;BME280;31345;51.522;10.702;2023-03-17T03:35:55;98849.66;;;0.41;100.00
45621;BME280;31345;51.522;10.702;2023-03-17T03:38:26;98850.31;;;0.48;100.00
45621;BME280;31345;51.522;10.702;2023-03-17T03:40:53;98840.81;;;0.51;100.00
45621;BME280;31345;51.522;10.702;2023-03-17T03:43:26;98834.03;;;0.49;100.00
45621;BME280;31345;51.522;10.702;2023-03-17T03:45:59;98828.69;;;0.55;100.00
45621;BME280;31345;51.522;10.702;2023-03-17T03:48:31;98837.16;;;0.28;100.00
45621;BME280;31345;51.522;10.702;2023-03-17T03:51:00;98829.41;;;0.30;100.00
45621;BME280;31345;51.522;10.702;2023-03-17T03:53:29;98837.47;;;0.48;100.00
45621;BME280;31345;51.522;10.702;2023-03-17T03:56:02;98833.09;;;0.51;100.00
45621;BME280;31345;51.522;10.702;2023-03-17T03:58:30;98831.19;;;0.58;100.00
45621;BME280;31345;51.522;10.702;2023-03-17T04:00:57;98831.94;;;0.62;100.00
45621;BME280;31345;51.522;10.702;2023-03-17T04:03:30;98823.00;;;0.43;100.00
45621;BME280;31345;51.522;10.702;2023-03-17T04:05:58;98823.13;;;0.40;100.00
45621;BME280;31345;51.522;10.702;2023-03-17T04:08:32;98833.22;;;0.46;100.00
45621;BME280;31345;51.522;10.702;2023-03-17T04:11:04;98837.44;;;0.49;100.00
45621;BME280;31345;51.522;10.702;2023-03-17T04:13:37;98832.41;;;0.46;100.00
45621;BME280;31345;51.522;10.702;2023-03-17T04:16:09;98834.16;;;0.44;100.00
45621;BME280;31345;51.522;10.702;2023-03-17T04:18:42;98834.31;;;0.38;100.00
45621;BME280;31345;51.522;10.702;2023-03-17T04:21:09;98836.75;;;0.42;100.00
45621;BME280;31345;51.522;10.702;2023-03-17T04:23:43;98833.69;;;0.29;100.00
45621;BME280;31345;51.522;10.702;2023-03-17T04:26:16;98830.75;;;0.42;100.00
45621;BME280;31345;51.522;10.702;2023-03-17T04:28:44;98828.97;;;0.14;100.00
45621;BME280;31345;51.522;10.702;2023-03-17T04:31:16;98832.13;;;0.24;100.00
45621;BME280;31345;51.522;10.702;2023-03-17T04:33:44;98819.50;;;0.16;100.00
45621;BME280;31345;51.522;10.702;2023-03-17T04:36:21;98822.69;;;0.24;100.00
45621;BME280;31345;51.522;10.702;2023-03-17T04:38:55;98821.06;;;0.22;100.00
45621;BME280;31345;51.522;10.702;2023-03-17T04:41:27;98819.41;;;0.19;100.00
45621;BME280;31345;51.522;10.702;2023-03-17T04:44:00;98826.31;;;-0.15;100.00
45621;BME280;31345;51.522;10.702;2023-03-17T04:46:33;98827.75;;;-0.04;100.00
45621;BME280;31345;51.522;10.702;2023-03-17T04:49:06;98816.78;;;-0.11;100.00
45621;BME280;31345;51.522;10.702;2023-03-17T04:51:39;98808.19;;;-0.10;100.00
45621;BME280;31345;51.522;10.702;2023-03-17T04:54:13;98810.75;;;-0.10;100.00
45621;BME280;31345;51.522;10.702;2023-03-17T04:56:46;98808.19;;;-0.10;100.00
45621;BME280;31345;51.522;10.702;2023-03-17T04:59:19;98813.56;;;-0.20;100.00
45621;BME280;31345;51.522;10.702;2023-03-17T05:01:52;98806.13;;;-0.29;100.00
45621;BME280;31345;51.522;10.702;2023-03-17T05:04:19;98799.44;;;-0.36;100.00
45621;BME280;31345;51.522;10.702;2023-03-17T05:06:51;98806.19;;;-0.32;100.00
45621;BME280;31345;51.522;10.702;2023-03-17T05:09:26;98794.25;;;-0.33;100.00
45621;BME280;31345;51.522;10.702;2023-03-17T05:11:58;98786.34;;;-0.27;100.00
45621;BME280;31345;51.522;10.702;2023-03-17T05:14:31;98794.56;;;-0.46;100.00
45621;BME280;31345;51.522;10.702;2023-03-17T05:17:03;98790.06;;;-0.37;100.00
45621;BME280;31345;51.522;10.702;2023-03-17T05:19:31;98791.13;;;-0.46;100.00
45621;BME280;31345;51.522;10.702;2023-03-17T05:21:59;98789.63;;;-0.55;100.00
45621;BME280;31345;51.522;10.702;2023-03-17T05:24:33;98785.94;;;-0.43;100.00
45621;BME280;31345;51.522;10.702;2023-03-17T05:27:00;98789.03;;;-0.30;100.00
45621;BME280;31345;51.522;10.702;2023-03-17T05:29:33;98791.09;;;-0.45;100.00
45621;BME280;31345;51.522;10.702;2023-03-17T05:32:05;98767.97;;;-0.78;100.00
45621;BME280;31345;51.522;10.702;2023-03-17T05:34:33;98778.47;;;-0.89;100.00
45621;BME280;31345;51.522;10.702;2023-03-17T05:37:06;98772.03;;;-1.05;100.00
45621;BME280;31345;51.522;10.702;2023-03-17T05:39:40;98782.72;;;-0.86;100.00
45621;BME280;31345;51.522;10.702;2023-03-17T05:42:08;98781.41;;;-0.68;100.00
45621;BME280;31345;51.522;10.702;2023-03-17T05:44:36;98778.09;;;-0.73;100.00
45621;BME280;31345;51.522;10.702;2023-03-17T05:47:05;98764.34;;;-0.71;100.00
45621;BME280;31345;51.522;10.702;2023-03-17T05:49:38;98772.16;;;-0.74;100.00
45621;BME280;31345;51.522;10.702;2023-03-17T05:52:06;98776.06;;;-0.95;100.00
45621;BME280;31345;51.522;10.702;2023-03-17T05:54:34;98773.56;;;-0.98;100.00
45621;BME280;31345;51.522;10.702;2023-03-17T05:57:03;98774.53;;;-1.02;100.00
45621;BME280;31345;51.522;10.702;2023-03-17T05:59:35;98781.97;;;-0.91;100.00
45621;BME280;31345;51.522;10.702;2023-03-17T06:02:03;98783.28;;;-0.75;100.00
45621;BME280;31345;51.522;10.702;2023-03-17T06:04:35;98784.72;;;-0.63;100.00
45621;BME280;31345;51.522;10.702;2023-03-17T06:07:08;98778.78;;;-0.66;100.00
45621;BME280;31345;51.522;10.702;2023-03-17T06:09:37;98777.25;;;-0.72;100.00
45621;BME280;31345;51.522;10.702;2023-03-17T06:12:11;98776.72;;;-0.52;100.00
45621;BME280;31345;51.522;10.702;2023-03-17T06:14:44;98782.63;;;-0.83;100.00
45621;BME280;31345;51.522;10.702;2023-03-17T06:17:16;98790.97;;;-0.75;100.00
45621;BME280;31345;51.522;10.702;2023-03-17T06:19:49;98793.47;;;-0.72;100.00
45621;BME280;31345;51.522;10.702;2023-03-17T06:22:22;98788.72;;;-0.52;100.00
45621;BME280;31345;51.522;10.702;2023-03-17T06:24:49;98793.00;;;-0.51;100.00
45621;BME280;31345;51.522;10.702;2023-03-17T06:27:24;98786.28;;;-0.24;100.00
45621;BME280;31345;51.522;10.702;2023-03-17T06:29:57;98784.97;;;-0.39;100.00
45621;BME280;31345;51.522;10.702;2023-03-17T06:32:30;98786.34;;;-0.27;100.00
45621;BME280;31345;51.522;10.702;2023-03-17T06:35:03;98781.81;;;-0.17;100.00
45621;BME280;31345;51.522;10.702;2023-03-17T06:37:32;98788.03;;;0.07;100.00
45621;BME280;31345;51.522;10.702;2023-03-17T06:40:00;98784.16;;;-0.08;100.00
45621;BME280;31345;51.522;10.702;2023-03-17T06:42:32;98774.16;;;0.13;100.00
45621;BME280;31345;51.522;10.702;2023-03-17T06:44:59;98772.94;;;0.25;100.00
45621;BME280;31345;51.522;10.702;2023-03-17T06:47:27;98777.28;;;0.25;100.00
45621;BME280;31345;51.522;10.702;2023-03-17T06:49:54;98776.06;;;0.37;100.00
45621;BME280;31345;51.522;10.702;2023-03-17T06:52:27;98782.25;;;0.59;100.00
45621;BME280;31345;51.522;10.702;2023-03-17T06:54:59;98785.97;;;0.79;100.00
45621;BME280;31345;51.522;10.702;2023-03-17T06:57:27;98779.44;;;0.96;100.00
45621;BME280;31345;51.522;10.702;2023-03-17T06:59:55;98780.84;;;1.06;100.00
45621;BME280;31345;51.522;10.702;2023-03-17T07:02:23;98773.50;;;1.21;100.00
45621;BME280;31345;51.522;10.702;2023-03-17T07:04:56;98782.53;;;1.34;100.00
45621;BME280;31345;51.522;10.702;2023-03-17T07:07:29;98788.34;;;1.40;100.00
45621;BME280;31345;51.522;10.702;2023-03-17T07:10:02;98791.06;;;1.62;100.00
45621;BME280;31345;51.522;10.702;2023-03-17T07:12:35;98782.78;;;1.78;100.00
45621;BME280;31345;51.522;10.702;2023-03-17T07:15:10;98782.25;;;1.93;100.00
45621;BME280;31345;51.522;10.702;2023-03-17T07:17:39;98778.22;;;2.10;100.00
45621;BME280;31345;51.522;10.702;2023-03-17T07:20:12;98775.81;;;2.29;100.00
45621;BME280;31345;51.522;10.702;2023-03-17T07:22:40;98792.94;;;2.54;100.00
45621;BME280;31345;51.522;10.702;2023-03-17T07:25:08;98789.31;;;2.82;100.00
45621;BME280;31345;51.522;10.702;2023-03-17T07:27:36;98790.59;;;2.94;100.00
45621;BME280;31345;51.522;10.702;2023-03-17T07:30:11;98779.16;;;3.22;100.00
45621;BME280;31345;51.522;10.702;2023-03-17T07:32:45;98779.84;;;3.26;100.00
45621;BME280;31345;51.522;10.702;2023-03-17T07:35:14;98786.41;;;3.55;100.00
45621;BME280;31345;51.522;10.702;2023-03-17T07:37:47;98790.16;;;3.48;100.00
45621;BME280;31345;51.522;10.702;2023-03-17T07:40:20;98782.59;;;3.43;100.00
45621;BME280;31345;51.522;10.702;2023-03-17T07:42:49;98785.19;;;3.43;100.00
45621;BME280;31345;51.522;10.702;2023-03-17T07:45:23;98789.56;;;3.62;100.00
45621;BME280;31345;51.522;10.702;2023-03-17T07:47:56;98778.31;;;3.84;100.00
45621;BME280;31345;51.522;10.702;2023-03-17T07:50:28;98780.56;;;4.13;100.00
45621;BME280;31345;51.522;10.702;2023-03-17T07:53:01;98770.28;;;4.30;100.00
45621;BME280;31345;51.522;10.702;2023-03-17T07:55:34;98765.00;;;4.51;99.96
45621;BME280;31345;51.522;10.702;2023-03-17T07:58:09;98761.16;;;4.60;98.98
45621;BME280;31345;51.522;10.702;2023-03-17T08:00:38;98759.03;;;4.51;98.38
45621;BME280;31345;51.522;10.702;2023-03-17T08:03:05;98752.16;;;4.87;99.02
45621;BME280;31345;51.522;10.702;2023-03-17T08:05:38;98758.66;;;4.95;97.38
45621;BME280;31345;51.522;10.702;2023-03-17T08:08:11;98756.41;;;5.07;96.80
45621;BME280;31345;51.522;10.702;2023-03-17T08:10:44;98759.13;;;5.21;95.67
45621;BME280;31345;51.522;10.702;2023-03-17T08:13:17;98747.88;;;5.40;93.91
45621;BME280;31345;51.522;10.702;2023-03-17T08:15:52;98742.22;;;5.49;94.09
45621;BME280;31345;51.522;10.702;2023-03-17T08:18:19;98741.31;;;5.50;93.83
45621;BME280;31345;51.522;10.702;2023-03-17T08:20:52;98734.06;;;5.57;93.17
45621;BME280;31345;51.522;10.702;2023-03-17T08:23:20;98731.19;;;5.62;92.33
45621;BME280;31345;51.522;10.702;2023-03-17T08:25:48;98733.25;;;6.07;84.62
45621;BME280;31345;51.522;10.702;2023-03-17T08:28:15;98728.72;;;6.10;81.78
45621;BME280;31345;51.522;10.702;2023-03-17T08:30:48;98723.81;;;6.22;81.78
45621;BME280;31345;51.522;10.702;2023-03-17T08:33:21;98734.25;;;6.36;80.03
45621;BME280;31345;51.522;10.702;2023-03-17T08:35:54;98725.63;;;6.52;80.66
45621;BME280;31345;51.522;10.702;2023-03-17T08:38:27;98729.97;;;6.68;80.59
45621;BME280;31345;51.522;10.702;2023-03-17T08:40:59;98732.50;;;6.85;80.25
45621;BME280;31345;51.522;10.702;2023-03-17T08:43:32;98738.81;;;7.12;77.69
45621;BME280;31345;51.522;10.702;2023-03-17T08:46:07;98741.25;;;7.15;78.57
45621;BME280;31345;51.522;10.702;2023-03-17T08:48:36;98732.91;;;7.24;76.68
45621;BME280;31345;51.522;10.702;2023-03-17T08:51:08;98726.44;;;7.46;74.63
45621;BME280;31345;51.522;10.702;2023-03-17T08:53:40;98720.31;;;7.47;71.64
45621;BME280;31345;51.522;10.702;2023-03-17T08:56:13;98730.59;;;7.65;75.86
45621;BME280;31345;51.522;10.702;2023-03-17T08:58:42;98723.91;;;8.04;73.65
45621;BME280;31345;51.522;10.702;2023-03-17T09:01:10;98728.59;;;8.27;71.30
45621;BME280;31345;51.522;10.702;2023-03-17T09:03:40;98740.06;;;8.10;73.00
45621;BME280;31345;51.522;10.702;2023-03-17T09:06:08;98737.22;;;8.42;72.46
45621;BME280;31345;51.522;10.702;2023-03-17T09:08:43;98734.53;;;8.43;70.37
45621;BME280;31345;51.522;10.702;2023-03-17T09:11:18;98721.41;;;8.72;69.48
45621;BME280;31345;51.522;10.702;2023-03-17T09:13:51;98708.28;;;9.02;67.32
45621;BME280;31345;51.522;10.702;2023-03-17T09:16:19;98718.09;;;8.70;69.86
45621;BME280;31345;51.522;10.702;2023-03-17T09:18:54;98717.72;;;8.90;67.60
45621;BME280;31345;51.522;10.702;2023-03-17T09:21:26;98707.63;;;8.98;66.16
45621;BME280;31345;51.522;10.702;2023-03-17T09:23:59;98719.50;;;8.89;67.99
45621;BME280;31345;51.522;10.702;2023-03-17T09:26:27;98714.97;;;9.06;68.24
45621;BME280;31345;51.522;10.702;2023-03-17T09:28:54;98714.19;;;9.31;66.86
45621;BME280;31345;51.522;10.702;2023-03-17T09:31:27;98721.47;;;9.39;64.32
45621;BME280;31345;51.522;10.702;2023-03-17T09:34:01;98712.53;;;9.69;67.58
45621;BME280;31345;51.522;10.702;2023-03-17T09:36:34;98711.88;;;9.79;63.71
45621;BME280;31345;51.522;10.702;2023-03-17T09:39:07;98701.53;;;9.64;63.66
45621;BME280;31345;51.522;10.702;2023-03-17T09:41:53;98698.81;;;9.92;65.47
45621;BME280;31345;51.522;10.702;2023-03-17T09:44:33;98686.88;;;10.00;65.26
45621;BME280;31345;51.522;10.702;2023-03-17T09:47:27;98680.44;;;9.80;62.19
45621;BME280;31345;51.522;10.702;2023-03-17T09:50:12;98693.19;;;9.72;68.05
45621;BME280;31345;51.522;10.702;2023-03-17T09:52:42;98698.78;;;10.18;68.15
45621;BME280;31345;51.522;10.702;2023-03-17T09:55:16;98694.53;;;10.04;62.28
45621;BME280;31345;51.522;10.702;2023-03-17T09:57:54;98691.88;;;10.30;62.19
45621;BME280;31345;51.522;10.702;2023-03-17T10:00:28;98681.34;;;10.43;61.73
45621;BME280;31345;51.522;10.702;2023-03-17T10:03:01;98693.69;;;10.89;63.10
45621;BME280;31345;51.522;10.702;2023-03-17T10:05:35;98696.78;;;10.59;63.98
45621;BME280;31345;51.522;10.702;2023-03-17T10:08:09;98696.47;;;10.99;61.15
45621;BME280;31345;51.522;10.702;2023-03-17T10:10:46;98698.78;;;10.79;62.60
45621;BME280;31345;51.522;10.702;2023-03-17T10:13:28;98690.22;;;11.13;63.09
45621;BME280;31345;51.522;10.702;2023-03-17T10:16:04;98682.09;;;11.05;58.95
45621;BME280;31345;51.522;10.702;2023-03-17T10:18:40;98680.25;;;11.30;61.58
45621;BME280;31345;51.522;10.702;2023-03-17T10:21:18;98679.03;;;11.23;63.50
45621;BME280;31345;51.522;10.702;2023-03-17T10:23:54;98662.31;;;11.25;62.31
45621;BME280;31345;51.522;10.702;2023-03-17T10:26:30;98667.16;;;11.30;60.42
45621;BME280;31345;51.522;10.702;2023-03-17T10:29:10;98667.44;;;11.61;62.96
45621;BME280;31345;51.522;10.702;2023-03-17T10:31:40;98671.97;;;11.93;63.80
45621;BME280;31345;51.522;10.702;2023-03-17T10:34:14;98663.88;;;12.08;60.29
45621;BME280;31345;51.522;10.702;2023-03-17T10:36:51;98661.63;;;12.15;60.87
45621;BME280;31345;51.522;10.702;2023-03-17T10:39:24;98658.38;;;12.11;60.99
45621;BME280;31345;51.522;10.702;2023-03-17T10:42:06;98658.59;;;12.31;61.33
45621;BME280;31345;51.522;10.702;2023-03-17T10:44:43;98641.72;;;12.24;56.23
45621;BME280;31345;51.522;10.702;2023-03-17T10:47:22;98649.66;;;12.66;57.35
45621;BME280;31345;51.522;10.702;2023-03-17T10:50:00;98647.03;;;12.66;58.14
45621;BME280;31345;51.522;10.702;2023-03-17T10:52:38;98649.03;;;12.74;55.71
45621;BME280;31345;51.522;10.702;2023-03-17T10:55:22;98648.41;;;12.82;58.19
45621;BME280;31345;51.522;10.702;2023-03-17T10:58:03;98640.66;;;13.02;56.31
45621;BME280;31345;51.522;10.702;2023-03-17T11:00:37;98640.06;;;13.19;56.37
45621;BME280;31345;51.522;10.702;2023-03-17T11:03:20;98640.22;;;13.18;56.33
45621;BME280;31345;51.522;10.702;2023-03-17T11:05:55;98635.53;;;12.79;56.20
45621;BME280;31345;51.522;10.702;2023-03-17T11:08:32;98631.78;;;12.71;55.50
45621;BME280;31345;51.522;10.702;2023-03-17T11:11:05;98621.56;;;12.24;56.84
45621;BME280;31345;51.522;10.702;2023-03-17T11:13:33;98622.66;;;12.54;57.56
45621;BME280;31345;51.522;10.702;2023-03-17T11:16:09;98610.47;;;12.53;57.77
45621;BME280;31345;51.522;10.702;2023-03-17T11:18:49;98609.63;;;12.64;55.71
45621;BME280;31345;51.522;10.702;2023-03-17T11:21:22;98610.09;;;12.91;60.45
45621;BME280;31345;51.522;10.702;2023-03-17T11:24:03;98602.34;;;13.10;60.38
45621;BME280;31345;51.522;10.702;2023-03-17T11:29:49;98597.38;;;13.17;57.69
45621;BME280;31345;51.522;10.702;2023-03-17T11:32:26;98600.31;;;13.55;59.54
45621;BME280;31345;51.522;10.702;2023-03-17T11:35:11;98598.16;;;13.60;57.81
45621;BME280;31345;51.522;10.702;2023-03-17T11:37:55;98602.50;;;13.81;57.51
45621;BME280;31345;51.522;10.702;2023-03-17T11:40:33;98607.31;;;13.76;58.93
45621;BME280;31345;51.522;10.702;2023-03-17T11:43:18;98599.56;;;13.43;58.23
45621;BME280;31345;51.522;10.702;2023-03-17T11:46:02;98604.28;;;13.71;59.36
45621;BME280;31345;51.522;10.702;2023-03-17T11:48:45;98594.59;;;13.71;57.61
45621;BME280;31345;51.522;10.702;2023-03-17T11:51:27;98591.03;;;13.82;57.89
45621;BME280;31345;51.522;10.702;2023-03-17T11:54:07;98596.16;;;13.84;57.82
45621;BME280;31345;51.522;10.702;2023-03-17T11:56:45;98591.16;;;13.71;59.91
45621;BME280;31345;51.522;10.702;2023-03-17T11:59:25;98590.34;;;13.90;59.21
45621;BME280;31345;51.522;10.702;2023-03-17T12:01:57;98590.19;;;13.82;54.79
45621;BME280;31345;51.522;10.702;2023-03-17T12:04:34;98590.69;;;14.26;58.90
45621;BME280;31345;51.522;10.702;2023-03-17T12:07:15;98583.78;;;14.35;58.79
45621;BME280;31345;51.522;10.702;2023-03-17T12:09:57;98583.22;;;14.12;58.91
45621;BME280;31345;51.522;10.702;2023-03-17T12:12:34;98578.66;;;14.24;58.34
45621;BME280;31345;51.522;10.702;2023-03-17T12:15:08;98564.81;;;14.02;56.43
45621;BME280;31345;51.522;10.702;2023-03-17T12:17:51;98571.31;;;13.98;60.06
45621;BME280;31345;51.522;10.702;2023-03-17T12:20:30;98563.69;;;13.95;58.90
45621;BME280;31345;51.522;10.702;2023-03-17T12:23:03;98562.84;;;14.04;58.89
45621;BME280;31345;51.522;10.702;2023-03-17T12:25:47;98567.47;;;14.32;61.40
45621;BME280;31345;51.522;10.702;2023-03-17T12:28:25;98560.38;;;14.12;57.26
45621;BME280;31345;51.522;10.702;2023-03-17T12:30:58;98556.63;;;14.35;58.40
45621;BME280;31345;51.522;10.702;2023-03-17T12:33:35;98554.13;;;14.13;57.33
45621;BME280;31345;51.522;10.702;2023-03-17T12:36:12;98548.75;;;14.15;57.52
45621;BME280;31345;51.522;10.702;2023-03-17T12:38:42;98549.72;;;14.24;58.49
45621;BME280;31345;51.522;10.702;2023-03-17T12:44:04;98541.69;;;14.25;56.90
45621;BME280;31345;51.522;10.702;2023-03-17T12:47:06;98540.59;;;14.38;56.80
45621;BME280;31345;51.522;10.702;2023-03-17T12:49:51;98539.47;;;14.40;56.04
45621;BME280;31345;51.522;10.702;2023-03-17T12:52:39;98541.56;;;14.37;53.58
45621;BME280;31345;51.522;10.702;2023-03-17T12:55:17;98549.84;;;14.52;57.08
45621;BME280;31345;51.522;10.702;2023-03-17T12:57:59;98541.56;;;14.47;58.01
45621;BME280;31345;51.522;10.702;2023-03-17T13:00:45;98542.94;;;14.51;55.31
45621;BME280;31345;51.522;10.702;2023-03-17T13:03:24;98549.59;;;14.45;56.92
45621;BME280;31345;51.522;10.702;2023-03-17T13:06:03;98555.81;;;14.24;58.45
45621;BME280;31345;51.522;10.702;2023-03-17T13:08:39;98556.22;;;14.39;55.81
45621;BME280;31345;51.522;10.702;2023-03-17T13:11:18;98544.16;;;14.66;55.35
45621;BME280;31345;51.522;10.702;2023-03-17T13:14:05;98547.34;;;14.60;57.19
45621;BME280;31345;51.522;10.702;2023-03-17T13:16:44;98537.06;;;14.77;54.53
45621;BME280;31345;51.522;10.702;2023-03-17T13:19:20;98536.53;;;14.73;54.42
45621;BME280;31345;51.522;10.702;2023-03-17T13:21:50;98538.19;;;14.74;55.24
45621;BME280;31345;51.522;10.702;2023-03-17T13:24:47;98535.38;;;15.06;57.93
45621;BME280;31345;51.522;10.702;2023-03-17T13:27:41;98533.84;;;14.93;58.92
45621;BME280;31345;51.522;10.702;2023-03-17T13:31:06;98528.22;;;14.78;55.30